Time;durP1;ratioP1;P1;durP2;ratioP2;P2;SDS_P1;SDS_P2;PMS_P1;PMS_P2;Temp;Humidity;BMP_temperature;BMP_pressure;BME280_temperature;BME280_humidity;BME280_pressure;Samples;Min_cycle;Max_cycle;Signal;HPM_P1;HPM_P2
2023/07/06 00:01:04;;;;;;;6.30;4.43;;;;;;;20.02;100.00;98518.75;4484923;31;20438;-66
2023/07/06 00:03:32;;;;;;;8.37;4.70;;;;;;;19.95;100.00;98515.25;4484864;31;20092;-66
2023/07/06 00:06:02;;;;;;;8.90;5.07;;;;;;;19.96;100.00;98516.91;4483700;32;20141;-66
2023/07/06 00:08:32;;;;;;;9.18;4.60;;;;;;;19.88;100.00;98519.78;4484607;31;20093;-66
2023/07/06 00:11:01;;;;;;;7.72;4.45;;;;;;;19.88;100.00;98534.91;4484465;31;20108;-66
2023/07/06 00:13:28;;;;;;;10.10;4.47;;;;;;;19.81;100.00;98529.59;4484478;31;20096;-66
2023/07/06 00:15:56;;;;;;;9.75;4.90;;;;;;;19.89;100.00;98533.88;4484372;31;20560;-66
2023/07/06 00:18:24;;;;;;;9.80;5.15;;;;;;;19.83;100.00;98532.84;4484444;31;20109;-66
2023/07/06 00:20:52;;;;;;;11.27;5.12;;;;;;;19.89;100.00;98537.34;4484546;31;20088;-66
2023/07/06 00:23:21;;;;;;;6.60;4.35;;;;;;;19.85;100.00;98533.47;4484199;32;20092;-66
2023/07/06 00:25:49;;;;;;;8.23;4.78;;;;;;;19.79;100.00;98535.09;4484583;31;20100;-66
2023/07/06 00:28:24;;;;;;;10.13;4.65;;;;;;;19.75;100.00;98538.34;4484234;31;20119;-66
2023/07/06 00:30:55;;;;;;;7.20;4.70;;;;;;;19.73;100.00;98548.34;4484480;32;20092;-66
2023/07/06 00:33:23;;;;;;;10.18;4.70;;;;;;;19.67;100.00;98542.81;4484152;31;20076;-66
2023/07/06 00:35:51;;;;;;;11.68;5.43;;;;;;;19.63;100.00;98533.59;4484238;31;20457;-66
2023/07/06 00:38:21;;;;;;;9.13;4.80;;;;;;;19.65;100.00;98539.56;4484369;31;20429;-66
2023/07/06 00:40:51;;;;;;;9.23;4.70;;;;;;;19.65;100.00;98523.59;4484195;31;20100;-66
2023/07/06 00:43:24;;;;;;;7.60;4.45;;;;;;;19.60;100.00;98531.34;4484338;31;20115;-66
2023/07/06 00:46:03;;;;;;;9.02;4.57;;;;;;;19.61;100.00;98534.84;4484199;31;20068;-66
2023/07/06 00:48:37;;;;;;;8.55;4.47;;;;;;;19.61;100.00;98527.69;4483938;31;20091;-66
2023/07/06 00:51:16;;;;;;;7.30;4.10;;;;;;;19.58;100.00;98522.78;4483886;32;20108;-66
2023/07/06 00:53:48;;;;;;;10.25;4.25;;;;;;;19.67;100.00;98529.53;4484028;32;20100;-66
2023/07/06 00:56:18;;;;;;;8.25;4.22;;;;;;;19.68;100.00;98528.53;4483825;31;20080;-66
2023/07/06 00:58:47;;;;;;;9.70;4.87;;;;;;;19.63;100.00;98530.94;4482599;32;20159;-66
2023/07/06 01:01:19;;;;;;;8.55;4.05;;;;;;;19.62;100.00;98526.66;4484093;31;20152;-66
2023/07/06 01:03:52;;;;;;;6.25;3.22;;;;;;;19.59;100.00;98528.91;4482582;32;20100;-66
2023/07/06 01:06:30;;;;;;;8.35;4.12;;;;;;;19.49;100.00;98535.41;4482573;32;20147;-66
2023/07/06 01:08:58;;;;;;;9.35;4.55;;;;;;;19.40;100.00;98533.16;4483839;31;20578;-66
2023/07/06 01:11:28;;;;;;;6.50;4.10;;;;;;;19.44;100.00;98537.03;4483854;31;20100;-66
2023/07/06 01:13:55;;;;;;;8.63;3.83;;;;;;;19.36;100.00;98538.03;4483611;31;20406;-66
2023/07/06 01:16:27;;;;;;;6.55;3.83;;;;;;;19.27;100.00;98534.75;4484215;32;20116;-66
2023/07/06 01:19:17;;;;;;;7.07;4.20;;;;;;;19.11;100.00;98521.81;4485894;32;20521;-66
2023/07/06 01:22:09;;;;;;;7.32;3.78;;;;;;;19.06;100.00;98522.41;4484806;32;20100;-66
2023/07/06 01:25:14;;;;;;;7.47;3.95;;;;;;;19.00;100.00;98515.25;4485922;31;20164;-66
2023/07/06 01:28:00;;;;;;;9.52;3.80;;;;;;;19.02;100.00;98515.84;4485876;31;20085;-66
2023/07/06 01:30:38;;;;;;;4.75;3.08;;;;;;;19.09;100.00;98510.56;4485955;31;20084;-66
2023/07/06 01:33:14;;;;;;;5.57;3.05;;;;;;;19.02;100.00;98515.84;4485796;32;20130;-66
2023/07/06 01:36:00;;;;;;;6.07;3.22;;;;;;;18.88;100.00;98514.97;4484775;32;20088;-66
2023/07/06 01:38:28;;;;;;;4.85;2.92;;;;;;;18.93;100.00;98509.09;4484616;32;20089;-66
2023/07/06 01:40:57;;;;;;;5.32;3.37;;;;;;;18.88;100.00;98507.03;4485976;32;20885;-66
2023/07/06 01:43:26;;;;;;;7.22;3.47;;;;;;;18.88;100.00;98509.69;4485813;31;20118;-66
2023/07/06 01:45:54;;;;;;;5.65;3.30;;;;;;;18.89;100.00;98505.97;4484636;32;20100;-66
2023/07/06 01:48:24;;;;;;;7.50;3.28;;;;;;;18.84;100.00;98508.38;4484508;32;20081;-66
2023/07/06 01:51:11;;;;;;;7.40;3.00;;;;;;;18.82;100.00;98504.28;4485515;31;20518;-66
2023/07/06 01:53:49;;;;;;;7.65;3.30;;;;;;;18.79;100.00;98508.97;4471617;32;20138;-66
2023/07/06 01:56:22;;;;;;;5.37;3.20;;;;;;;18.82;100.00;98513.09;4486069;31;20191;-66
2023/07/06 01:58:59;;;;;;;4.65;3.12;;;;;;;18.81;100.00;98514.09;4484367;32;20366;-66
2023/07/06 02:01:32;;;;;;;5.18;2.92;;;;;;;18.80;100.00;98513.28;4485758;31;20119;-66
2023/07/06 02:04:03;;;;;;;5.37;3.22;;;;;;;18.88;100.00;98509.69;4484351;32;20944;-66
2023/07/06 02:06:31;;;;;;;5.53;3.17;;;;;;;18.78;100.00;98511.84;4484525;32;20157;-66
2023/07/06 02:08:58;;;;;;;5.55;3.30;;;;;;;18.75;100.00;98510.38;4485565;31;20107;-66
2023/07/06 02:11:26;;;;;;;5.82;2.80;;;;;;;18.73;100.00;98508.97;4485722;31;20105;-66
2023/07/06 02:13:54;;;;;;;9.48;3.35;;;;;;;18.65;100.00;98512.56;4485530;31;20112;-66
2023/07/06 02:16:21;;;;;;;6.22;3.20;;;;;;;18.68;100.00;98512.19;4485489;31;20411;-66
2023/07/06 02:18:49;;;;;;;5.93;3.12;;;;;;;18.68;100.00;98516.66;4485556;32;20126;-66
2023/07/06 02:21:17;;;;;;;5.57;3.35;;;;;;;18.80;100.00;98510.62;4485668;32;20085;-66
2023/07/06 02:23:45;;;;;;;8.02;2.90;;;;;;;18.80;100.00;98501.81;4485330;32;20104;-66
2023/07/06 02:26:14;;;;;;;13.18;3.75;;;;;;;18.80;100.00;98512.44;4485603;31;20127;-66
2023/07/06 02:28:43;;;;;;;4.72;2.67;;;;;;;18.85;100.00;98507.41;4484958;32;20165;-66
2023/07/06 02:31:11;;;;;;;5.25;2.72;;;;;;;18.85;100.00;98519.81;4485495;32;20088;-66
2023/07/06 02:33:38;;;;;;;5.93;2.67;;;;;;;18.85;100.00;98509.19;4485658;31;20156;-66
2023/07/06 02:36:06;;;;;;;7.75;3.85;;;;;;;18.83;100.00;98506.75;4485298;31;20114;-66
2023/07/06 02:38:34;;;;;;;6.55;2.42;;;;;;;18.79;100.00;98516.94;4485471;31;20089;-66
2023/07/06 02:41:04;;;;;;;5.85;3.37;;;;;;;18.73;100.00;98516.91;4485277;31;20100;-66
2023/07/06 02:43:32;;;;;;;6.18;2.80;;;;;;;18.62;100.00;98518.25;4485578;31;20115;-66
2023/07/06 02:46:03;;;;;;;5.25;2.90;;;;;;;18.70;100.00;98522.59;4485415;31;20092;-66
2023/07/06 02:48:31;;;;;;;8.43;2.92;;;;;;;18.58;100.00;98532.94;4485219;31;20100;-66
2023/07/06 02:50:58;;;;;;;8.52;2.70;;;;;;;18.56;100.00;98525.19;4485468;32;20100;-66
2023/07/06 02:53:27;;;;;;;6.90;2.92;;;;;;;18.55;100.00;98523.53;4485244;31;20096;-66
2023/07/06 02:55:55;;;;;;;4.00;2.58;;;;;;;18.58;100.00;98531.09;4485599;32;20174;-66
2023/07/06 02:58:23;;;;;;;5.82;2.65;;;;;;;18.58;100.00;98531.09;4485182;32;20084;-65
2023/07/06 03:00:51;;;;;;;4.45;2.45;;;;;;;18.56;100.00;98527.00;4485653;31;20096;-66
2023/07/06 03:03:18;;;;;;;5.47;3.12;;;;;;;18.54;100.00;98543.13;4485302;31;20115;-66
2023/07/06 03:05:46;;;;;;;4.45;2.75;;;;;;;18.53;100.00;98530.03;4485178;31;20122;-66
2023/07/06 03:08:15;;;;;;;5.15;3.28;;;;;;;18.49;100.00;98534.12;4485120;31;20479;-66
2023/07/06 03:10:46;;;;;;;3.30;2.40;;;;;;;18.50;100.00;98530.44;4485329;31;20119;-65
2023/07/06 03:13:14;;;;;;;6.68;2.70;;;;;;;18.53;100.00;98525.59;4485162;31;20108;-65
2023/07/06 03:15:50;;;;;;;5.50;2.87;;;;;;;18.56;100.00;98532.31;4485712;31;20115;-66
2023/07/06 03:18:18;;;;;;;;;;;;;;;18.70;100.00;98530.56;4485465;31;20112;-66
2023/07/06 03:20:48;;;;;;;4.93;2.53;;;;;;;18.75;100.00;98536.09;4485245;32;20011;-66
2023/07/06 03:23:18;;;;;;;4.55;2.40;;;;;;;18.70;100.00;98538.50;4483975;32;20205;-65
2023/07/06 03:25:50;;;;;;;4.40;2.30;;;;;;;18.75;100.00;98534.25;4485127;32;20547;-66
2023/07/06 03:28:18;;;;;;;3.12;2.03;;;;;;;18.74;100.00;98537.13;4485465;31;20103;-66
2023/07/06 03:30:46;;;;;;;6.35;2.47;;;;;;;18.73;100.00;98532.84;4485065;31;20097;-66
2023/07/06 03:33:13;;;;;;;7.43;2.47;;;;;;;18.76;100.00;98540.41;4485237;32;20446;-66
2023/07/06 03:35:41;;;;;;;6.50;3.00;;;;;;;18.72;100.00;98542.63;4484983;31;20100;-66
2023/07/06 03:38:09;;;;;;;5.12;2.25;;;;;;;18.75;100.00;98546.72;4484850;31;20080;-66
2023/07/06 03:40:38;;;;;;;2.97;2.20;;;;;;;18.82;100.00;98552.06;4483886;31;20123;-66
2023/07/06 03:43:06;;;;;;;6.57;2.12;;;;;;;18.82;100.00;98558.22;4484828;31;20093;-66
2023/07/06 03:45:33;;;;;;;7.93;2.75;;;;;;;18.74;100.00;98547.72;4483610;32;20501;-66
2023/07/06 03:48:01;;;;;;;4.82;2.58;;;;;;;18.80;100.00;98554.91;4484626;31;20092;-66
2023/07/06 03:50:28;;;;;;;4.97;2.30;;;;;;;18.68;100.00;98549.31;4484849;31;20100;-65
2023/07/06 03:52:57;;;;;;;3.80;2.28;;;;;;;18.68;100.00;98561.78;4484868;31;20114;-66
2023/07/06 03:55:24;;;;;;;3.47;2.00;;;;;;;18.71;100.00;98564.03;4484811;31;20568;-66
2023/07/06 03:57:52;;;;;;;4.43;2.10;;;;;;;18.68;100.00;98569.75;4484690;31;20096;-67
2023/07/06 04:00:24;;;;;;;3.85;2.00;;;;;;;18.71;100.00;98562.22;4496004;31;20116;-66
2023/07/06 04:02:56;;;;;;;5.07;2.40;;;;;;;18.72;100.00;98574.47;4498926;31;20863;-66
2023/07/06 04:05:38;;;;;;;5.07;2.42;;;;;;;18.84;100.00;98574.75;4494348;31;20139;-66
2023/07/06 04:08:09;;;;;;;7.85;2.30;;;;;;;18.82;100.00;98579.44;4485356;31;20126;-65
2023/07/06 04:10:38;;;;;;;4.18;2.25;;;;;;;18.85;100.00;98592.34;4484615;31;20475;-66
2023/07/06 04:13:06;;;;;;;4.35;2.20;;;;;;;18.87;100.00;98585.00;4484204;31;20104;-66
2023/07/06 04:15:34;;;;;;;4.53;2.25;;;;;;;18.84;100.00;98595.97;4492423;31;20092;-66
2023/07/06 04:18:05;;;;;;;3.33;2.00;;;;;;;18.83;100.00;98607.59;4484502;32;20137;-66
2023/07/06 04:20:37;;;;;;;4.45;2.37;;;;;;;18.90;100.00;98608.50;4484259;31;20104;-66
2023/07/06 04:23:04;;;;;;;5.95;2.20;;;;;;;18.89;100.00;98600.72;4485169;31;20187;-66
2023/07/06 04:25:34;;;;;;;5.93;2.05;;;;;;;19.05;100.00;98602.25;4489874;31;20117;-66
2023/07/06 04:28:06;;;;;;;5.65;2.40;;;;;;;19.20;100.00;98610.91;4500085;31;20110;-66
2023/07/06 04:30:36;;;;;;;4.37;2.30;;;;;;;19.22;100.00;98608.06;4500150;31;20080;-66
2023/07/06 04:33:04;;;;;;;3.80;2.33;;;;;;;19.20;100.00;98605.59;4496218;31;20096;-66
2023/07/06 04:35:31;;;;;;;6.32;2.53;;;;;;;19.30;100.00;98614.03;4499917;31;20454;-66
2023/07/06 04:38:00;;;;;;;7.57;2.35;;;;;;;19.36;100.00;98623.03;4499924;31;20442;-66
2023/07/06 04:40:27;;;;;;;6.57;2.30;;;;;;;19.28;100.00;98636.50;4498691;31;20100;-66
2023/07/06 04:42:56;;;;;;;3.22;1.90;;;;;;;19.19;100.00;98627.84;4495550;31;20134;-67
2023/07/06 04:45:25;;;;;;;4.28;2.22;;;;;;;19.15;100.00;98632.75;4487969;31;20160;-66
2023/07/06 04:47:53;;;;;;;3.85;2.37;;;;;;;19.02;100.00;98629.22;4491556;31;20816;-66
2023/07/06 04:50:24;;;;;;;4.47;2.47;;;;;;;18.94;100.00;98625.69;4490679;31;20496;-66
2023/07/06 04:52:55;;;;;;;4.60;2.50;;;;;;;18.82;100.00;98627.22;4491730;31;20175;-66
2023/07/06 04:55:25;;;;;;;5.03;2.58;;;;;;;18.75;100.00;98636.94;4485945;31;20135;-66
2023/07/06 04:57:54;;;;;;;3.05;1.65;;;;;;;18.70;100.00;98634.03;4493734;31;20097;-65
2023/07/06 05:00:26;;;;;;;7.00;2.60;;;;;;;18.59;100.00;98638.88;4476179;31;20163;-66
2023/07/06 05:02:59;;;;;;;3.45;2.05;;;;;;;18.56;100.00;98639.28;4488257;31;20118;-66
2023/07/06 05:05:28;;;;;;;5.85;2.30;;;;;;;18.57;100.00;98643.53;4488778;31;20096;-66
2023/07/06 05:07:56;;;;;;;3.85;2.40;;;;;;;18.46;100.00;98649.38;4499406;31;20197;-66
2023/07/06 05:10:25;;;;;;;3.87;2.15;;;;;;;18.33;100.00;98649.25;4501626;31;20129;-66
2023/07/06 05:12:55;;;;;;;3.50;2.12;;;;;;;18.30;100.00;98647.00;4499257;31;20164;-66
2023/07/06 05:15:24;;;;;;;5.87;2.60;;;;;;;18.27;100.00;98645.53;4485888;31;20080;-66
2023/07/06 05:17:54;;;;;;;11.23;2.53;;;;;;;18.18;100.00;98631.59;4496682;31;20099;-67
2023/07/06 05:20:24;;;;;;;10.18;2.62;;;;;;;17.90;100.00;98634.97;4501644;31;20519;-67
2023/07/06 05:22:52;;;;;;;11.25;2.80;;;;;;;17.78;100.00;98641.75;4501854;31;20088;-67
2023/07/06 05:25:19;;;;;;;4.60;2.47;;;;;;;17.76;100.00;98642.94;4501723;31;20129;-67
2023/07/06 05:27:47;;;;;;;7.05;2.75;;;;;;;17.56;100.00;98654.09;4501527;31;20080;-67
2023/07/06 05:30:17;;;;;;;9.30;3.37;;;;;;;17.54;100.00;98662.25;4500068;31;20149;-68
2023/07/06 05:32:49;;;;;;;8.63;3.53;;;;;;;17.51;100.00;98675.03;4490156;31;20152;-68
2023/07/06 05:35:18;;;;;;;6.57;2.60;;;;;;;17.48;100.00;98668.28;4485953;32;20138;-68
2023/07/06 05:37:45;;;;;;;5.85;3.05;;;;;;;17.48;100.00;98680.72;4487302;31;20556;-67
2023/07/06 05:40:13;;;;;;;7.22;2.75;;;;;;;17.41;100.00;98685.09;4495255;31;20127;-67
2023/07/06 05:42:41;;;;;;;6.12;3.35;;;;;;;17.48;100.00;98686.81;4492233;31;20103;-67
2023/07/06 05:45:08;;;;;;;8.27;3.62;;;;;;;17.46;100.00;98675.59;4492123;31;20108;-66
2023/07/06 05:47:39;;;;;;;5.75;3.58;;;;;;;17.47;100.00;98664.00;4488087;31;20119;-66
2023/07/06 05:50:08;;;;;;;7.03;3.87;;;;;;;17.52;100.00;98648.38;4497850;31;20662;-66
2023/07/06 05:52:37;;;;;;;9.57;4.00;;;;;;;17.63;100.00;98633.00;4487140;31;20458;-66
2023/07/06 05:55:06;;;;;;;6.00;3.33;;;;;;;17.68;100.00;98631.47;4496438;31;20134;-66
2023/07/06 05:57:33;;;;;;;6.28;3.10;;;;;;;17.74;100.00;98637.81;4488976;31;20100;-66
2023/07/06 06:00:09;;;;;;;6.82;3.35;;;;;;;17.99;100.00;98640.97;4487194;31;20163;-66
2023/07/06 06:02:39;;;;;;;4.82;2.60;;;;;;;18.03;100.00;98647.56;4500101;31;20167;-66
2023/07/06 06:05:08;;;;;;;9.13;3.42;;;;;;;18.12;100.00;98660.69;4483631;31;20091;-66
2023/07/06 06:07:36;;;;;;;4.87;2.87;;;;;;;18.24;100.00;98667.97;4487633;31;20470;-66
2023/07/06 06:10:04;;;;;;;7.97;2.97;;;;;;;18.24;100.00;98660.00;4493059;31;20119;-66
2023/07/06 06:12:33;;;;;;;4.78;2.85;;;;;;;18.33;100.00;98659.87;4494030;31;20100;-66
2023/07/06 06:15:00;;;;;;;5.18;3.08;;;;;;;18.37;100.00;98661.94;4485588;31;20088;-66
2023/07/06 06:17:29;;;;;;;16.05;4.87;;;;;;;18.40;100.00;98664.22;4478292;31;20092;-66
2023/07/06 06:19:57;;;;;;;7.97;3.17;;;;;;;18.55;100.00;98661.50;4478033;31;20131;-66
2023/07/06 06:22:25;;;;;;;8.15;3.00;;;;;;;18.66;100.00;98665.47;4481134;31;20118;-66
2023/07/06 06:24:53;;;;;;;6.18;3.10;;;;;;;18.84;100.00;98667.63;4482485;31;20111;-66
2023/07/06 06:27:20;;;;;;;7.47;3.30;;;;;;;18.82;100.00;98664.38;4482520;31;20131;-66
2023/07/06 06:29:48;;;;;;;10.82;3.05;;;;;;;18.80;100.00;98661.91;4482165;31;20123;-67
2023/07/06 06:32:17;;;;;;;5.60;3.00;;;;;;;18.95;100.00;98675.09;4482911;31;20544;-67
2023/07/06 06:34:44;;;;;;;5.82;2.80;;;;;;;19.24;100.00;98670.59;4482017;31;20149;-67
2023/07/06 06:37:12;;;;;;;8.30;3.17;;;;;;;19.32;100.00;98678.41;4483587;31;20119;-67
2023/07/06 06:39:41;;;;;;;5.15;3.15;;;;;;;19.63;100.00;98674.44;4481941;31;20139;-67
2023/07/06 06:42:09;;;;;;;5.87;3.17;;;;;;;20.02;100.00;98680.97;4479632;31;20123;-67
2023/07/06 06:44:40;;;;;;;5.03;2.90;;;;;;;20.27;100.00;98677.72;4482369;31;20383;-67
2023/07/06 06:47:08;;;;;;;4.15;2.78;;;;;;;20.65;100.00;98676.34;4480470;31;20168;-67
2023/07/06 06:49:35;;;;;;;4.45;2.78;;;;;;;20.99;100.00;98680.66;4479941;31;20791;-67
2023/07/06 06:52:04;;;;;;;4.28;2.40;;;;;;;20.47;100.00;98687.59;4477761;31;20439;-67
2023/07/06 06:54:33;;;;;;;4.85;2.75;;;;;;;20.44;100.00;98685.34;4480280;31;20095;-67
2023/07/06 06:57:03;;;;;;;6.68;2.87;;;;;;;20.09;100.00;98685.47;4478656;31;20084;-67
2023/07/06 06:59:32;;;;;;;5.07;2.87;;;;;;;20.03;100.00;98684.47;4479437;31;20120;-67
2023/07/06 07:02:02;;;;;;;5.57;3.00;;;;;;;19.92;100.00;98685.03;4479072;31;20108;-67
2023/07/06 07:04:31;;;;;;;3.80;2.67;;;;;;;19.84;100.00;98689.50;4480030;31;20658;-67
2023/07/06 07:07:03;;;;;;;7.30;2.83;;;;;;;19.88;100.00;98691.75;4479733;31;20431;-67
2023/07/06 07:09:33;;;;;;;5.70;3.05;;;;;;;20.09;100.00;98690.78;4479246;31;20089;-67
2023/07/06 07:12:01;;;;;;;7.37;3.05;;;;;;;20.15;100.00;98688.16;4476133;31;20096;-67
2023/07/06 07:14:30;;;;;;;4.25;2.83;;;;;;;20.15;100.00;98679.34;4473432;31;20587;-67
2023/07/06 07:16:58;;;;;;;7.70;3.28;;;;;;;20.41;100.00;98683.91;4475255;31;20114;-67
2023/07/06 07:19:28;;;;;;;8.48;3.50;;;;;;;20.17;100.00;98682.66;4477153;31;20687;-67
2023/07/06 07:22:00;;;;;;;5.87;2.90;;;;;;;20.25;100.00;98689.63;4481240;31;20100;-67
2023/07/06 07:24:29;;;;;;;4.45;2.75;;;;;;;20.29;100.00;98691.66;4480635;31;20142;-67
2023/07/06 07:26:58;;;;;;;6.25;3.12;;;;;;;20.56;100.00;98686.41;4476321;31;20547;-67
2023/07/06 07:29:25;;;;;;;5.35;3.10;;;;;;;20.55;100.00;98690.06;4480088;31;20123;-67
2023/07/06 07:31:53;;;;;;;4.18;2.75;;;;;;;20.50;100.00;98689.84;4479029;31;20139;-67
2023/07/06 07:34:21;;;;;;;8.07;3.55;;;;;;;20.49;100.00;98697.00;4479579;31;20104;-67
2023/07/06 07:36:50;;;;;;;5.07;2.50;;;;;;;20.73;100.00;98681.50;4479582;31;20580;-67
2023/07/06 07:39:18;;;;;;;6.60;3.20;;;;;;;20.51;100.00;98694.16;4480329;31;20209;-67
2023/07/06 07:41:47;;;;;;;6.20;2.80;;;;;;;20.50;100.00;98685.34;4480867;31;20116;-67
2023/07/06 07:44:15;;;;;;;4.82;2.90;;;;;;;20.67;100.00;98688.47;4480446;31;20179;-67
2023/07/06 07:46:45;;;;;;;6.07;3.00;;;;;;;21.07;100.00;98683.13;4478611;32;20144;-67
2023/07/06 07:49:13;;;;;;;6.45;3.12;;;;;;;21.05;100.00;98681.69;4479446;31;20142;-67
2023/07/06 07:51:41;;;;;;;5.03;2.80;;;;;;;21.24;100.00;98678.16;4478347;31;20096;-67
2023/07/06 07:54:09;;;;;;;6.07;2.87;;;;;;;21.48;100.00;98683.81;4479066;31;20099;-67
2023/07/06 07:56:37;;;;;;;8.35;3.12;;;;;;;21.73;100.00;98675.97;4479938;31;20104;-67
2023/07/06 07:59:05;;;;;;;6.57;2.78;;;;;;;22.04;100.00;98674.37;4477064;31;20108;-67
2023/07/06 08:01:34;;;;;;;6.40;3.30;;;;;;;22.39;100.00;98679.34;4481346;31;20104;-67
2023/07/06 08:04:02;;;;;;;5.05;3.08;;;;;;;22.44;100.00;98674.19;4478612;32;20216;-67
2023/07/06 08:06:32;;;;;;;6.28;3.40;;;;;;;22.37;100.00;98684.06;4479433;31;20145;-67
2023/07/06 08:09:06;;;;;;;6.07;2.95;;;;;;;22.51;100.00;98676.78;4478031;31;20172;-67
2023/07/06 08:11:37;;;;;;;6.28;2.92;;;;;;;22.48;100.00;98678.06;4479775;31;20088;-67
2023/07/06 08:14:08;;;;;;;7.07;2.83;;;;;;;22.72;100.00;98685.47;4480999;31;20528;-67
2023/07/06 08:16:36;;;;;;;8.27;3.15;;;;;;;22.84;100.00;98681.84;4481869;31;20586;-67
2023/07/06 08:19:05;;;;;;;6.90;3.40;;;;;;;23.18;100.00;98682.41;4480524;31;20096;-67
2023/07/06 08:21:55;;;;;;;7.70;3.15;;;;;;;23.24;100.00;98682.53;4481665;31;20477;-67
2023/07/06 08:24:38;;;;;;;4.00;2.70;;;;;;;23.14;100.00;98683.88;4482913;31;20096;-66
2023/07/06 08:27:06;;;;;;;5.60;2.70;;;;;;;22.94;100.00;98686.72;4483248;31;20079;-66
2023/07/06 08:29:42;;;;;;;6.75;3.05;;;;;;;22.97;100.00;98688.94;4478847;31;20176;-66
2023/07/06 08:32:12;;;;;;;8.07;2.85;;;;;;;22.98;100.00;98690.59;4482733;32;20100;-66
2023/07/06 08:34:39;;;;;;;5.43;2.58;;;;;;;22.93;100.00;98690.41;4482522;31;20100;-66
2023/07/06 08:37:07;;;;;;;8.60;2.90;;;;;;;22.88;100.00;98695.59;4484004;31;20131;-66
2023/07/06 08:39:36;;;;;;;5.45;2.75;;;;;;;23.09;100.00;98699.75;4481109;31;20122;-66
2023/07/06 08:42:09;;;;;;;7.37;2.70;;;;;;;22.88;100.00;98703.63;4481082;31;20462;-66
2023/07/06 08:44:37;;;;;;;7.40;2.70;;;;;;;23.10;100.00;98704.06;4481432;31;20545;-66
2023/07/06 08:47:07;;;;;;;6.55;2.60;;;;;;;23.24;100.00;98690.56;4481661;31;20481;-66
2023/07/06 08:49:38;;;;;;;6.35;2.80;;;;;;;23.14;100.00;98696.44;4481109;31;20092;-66
2023/07/06 08:52:10;;;;;;;8.65;3.05;;;;;;;23.56;99.63;98693.94;4481746;32;20104;-66
2023/07/06 08:54:39;;;;;;;7.10;2.60;;;;;;;23.92;100.00;98693.09;4481489;31;20088;-66
2023/07/06 08:57:30;;;;;;;6.47;3.00;;;;;;;24.57;99.05;98686.22;4482862;31;20127;-66
2023/07/06 08:59:57;;;;;;;3.53;2.72;;;;;;;24.21;94.65;98685.28;4482763;31;20092;-66
2023/07/06 09:02:27;;;;;;;7.28;2.78;;;;;;;23.87;99.56;98695.63;4484434;31;20487;-66
2023/07/06 09:04:56;;;;;;;6.57;2.87;;;;;;;24.00;99.62;98699.19;4484108;31;20115;-66
2023/07/06 09:07:31;;;;;;;7.10;3.25;;;;;;;23.62;96.44;98702.91;4480951;31;20125;-67
2023/07/06 09:09:58;;;;;;;7.75;3.15;;;;;;;23.46;100.00;98701.66;4479367;31;20175;-67
2023/07/06 09:12:47;;;;;;;8.13;3.00;;;;;;;23.32;100.00;98701.78;4483235;31;20472;-66
2023/07/06 09:15:21;;;;;;;9.35;3.50;;;;;;;23.68;96.28;98707.34;4484946;31;20146;-66
2023/07/06 09:17:50;;;;;;;8.85;3.17;;;;;;;24.00;96.14;98710.69;4485904;31;20096;-66
2023/07/06 09:20:20;;;;;;;6.10;2.72;;;;;;;24.41;97.30;98710.97;4481992;32;20096;-67
2023/07/06 09:22:48;;;;;;;9.07;3.10;;;;;;;25.36;92.44;98701.19;4479002;31;20100;-67
2023/07/06 09:25:38;;;;;;;6.75;3.15;;;;;;;25.42;89.29;98702.94;4484625;31;20100;-67
2023/07/06 09:28:13;;;;;;;3.87;2.20;;;;;;;25.32;87.26;98700.84;4481992;31;20892;-67
2023/07/06 09:30:41;;;;;;;7.72;3.30;;;;;;;25.52;88.94;98705.00;4480067;31;20092;-66
2023/07/06 09:33:17;;;;;;;5.60;3.00;;;;;;;25.32;91.83;98705.41;4481401;31;20108;-67
2023/07/06 09:35:47;;;;;;;7.28;3.28;;;;;;;25.07;92.38;98706.44;4480543;31;20122;-66
2023/07/06 09:38:17;;;;;;;8.77;3.25;;;;;;;24.52;93.15;98715.53;4497509;31;20163;-67
2023/07/06 09:40:46;;;;;;;9.75;3.62;;;;;;;24.53;94.63;98721.72;4488696;31;20664;-67
2023/07/06 09:43:29;;;;;;;8.85;3.45;;;;;;;24.40;95.15;98720.84;4482217;32;20134;-67
2023/07/06 09:45:59;;;;;;;10.00;3.15;;;;;;;24.56;93.44;98716.72;4485120;31;20108;-66
2023/07/06 09:48:31;;;;;;;5.82;3.30;;;;;;;24.51;89.86;98729.16;4492678;31;20100;-66
2023/07/06 09:51:11;;;;;;;7.28;3.33;;;;;;;24.48;92.91;98724.25;4487564;31;20096;-66
2023/07/06 09:53:52;;;;;;;8.65;3.20;;;;;;;24.41;92.82;98716.31;4481147;32;20100;-66
2023/07/06 09:56:22;;;;;;;5.72;2.90;;;;;;;24.75;92.05;98717.44;4490822;31;20492;-66
2023/07/06 09:58:51;;;;;;;10.40;3.00;;;;;;;25.03;86.79;98723.22;4490058;31;20096;-66
2023/07/06 10:01:20;;;;;;;10.25;2.83;;;;;;;24.92;85.81;98731.00;4493691;31;20151;-66
2023/07/06 10:03:55;;;;;;;5.22;2.90;;;;;;;25.20;85.83;98713.41;4501289;31;20501;-67
2023/07/06 10:06:37;;;;;;;8.95;3.10;;;;;;;25.09;82.88;98714.25;4501308;31;20426;-66
2023/07/06 10:09:14;;;;;;;5.50;3.22;;;;;;;25.26;86.30;98719.72;4498945;31;20084;-66
2023/07/06 10:11:55;;;;;;;7.70;2.80;;;;;;;25.41;85.55;98708.53;4474444;32;20100;-66
2023/07/06 10:14:29;;;;;;;7.62;3.05;;;;;;;25.11;85.46;98712.13;4482909;32;20451;-66
2023/07/06 10:17:03;;;;;;;5.82;2.80;;;;;;;25.18;85.17;98707.47;4486226;31;20073;-66
2023/07/06 10:19:36;;;;;;;8.98;3.20;;;;;;;25.47;81.16;98696.88;4496184;31;20091;-67
2023/07/06 10:22:38;;;;;;;5.82;2.47;;;;;;;25.49;79.79;98698.25;4481581;31;20096;-66
2023/07/06 10:25:53;;;;;;;5.62;2.75;;;;;;;25.96;77.65;98694.59;4485238;31;20096;-67
2023/07/06 10:28:42;;;;;;;6.15;2.35;;;;;;;26.07;nan;98689.47;4410852;32;20128;-65
2023/07/06 10:31:13;;;;;;;6.65;2.47;;;;;;;25.71;73.69;98688.75;4419466;32;20452;-65
2023/07/06 10:34:07;;;;;;;5.60;2.58;;;;;;;25.54;74.90;98676.06;4411006;32;20141;-65
2023/07/06 10:36:35;;;;;;;5.32;2.90;;;;;;;25.75;76.91;98692.59;4392443;32;20125;-66
2023/07/06 10:39:32;;;;;;;8.05;2.70;;;;;;;25.75;77.27;98690.72;4406580;32;20125;-66
2023/07/06 10:42:03;;;;;;;4.25;2.80;;;;;;;25.88;79.45;98686.94;4424106;32;20121;-67
2023/07/06 10:44:44;;;;;;;5.50;2.80;;;;;;;25.85;77.07;98696.28;4420029;32;20105;-66
2023/07/06 10:47:37;;;;;;;4.70;2.78;;;;;;;25.88;79.20;98696.88;4420125;32;20155;-67
2023/07/06 10:50:07;;;;;;;11.60;2.65;;;;;;;25.96;76.62;98699.97;4428120;32;20101;-67
2023/07/06 10:52:37;;;;;;;4.78;3.45;;;;;;;25.90;75.25;98700.13;4435157;32;20583;-66
2023/07/06 10:55:18;;;;;;;5.05;2.83;;;;;;;25.97;73.70;98701.62;4418667;32;20102;-66
2023/07/06 10:57:59;;;;;;;8.65;2.87;;;;;;;26.08;77.84;98716.06;4420813;32;20722;-65
2023/07/06 11:00:33;;;;;;;5.45;2.53;;;;;;;25.99;73.44;98709.47;4408738;32;20157;-66
2023/07/06 11:03:02;;;;;;;4.65;2.53;;;;;;;25.99;72.48;98715.63;4446878;31;20170;-67
2023/07/06 11:05:36;;;;;;;5.47;2.35;;;;;;;26.09;71.25;98716.91;4501084;31;20092;-66
2023/07/06 11:08:10;;;;;;;8.73;2.78;;;;;;;25.97;67.97;98706.97;4479753;32;20168;-66
2023/07/06 11:10:49;;;;;;;6.93;2.45;;;;;;;26.02;69.28;98706.28;4483439;31;20487;-67
2023/07/06 11:13:20;;;;;;;4.78;2.70;;;;;;;25.99;69.65;98706.78;4495349;31;20103;-67
2023/07/06 11:15:48;;;;;;;6.10;2.42;;;;;;;26.06;69.30;98698.56;4484779;31;20088;-67
2023/07/06 11:18:36;;;;;;;4.50;2.70;;;;;;;25.93;68.81;98700.44;4486279;31;20592;-65
2023/07/06 11:21:21;;;;;;;5.75;2.40;;;;;;;26.08;68.63;98697.28;4497527;31;20083;-67
2023/07/06 11:23:56;;;;;;;5.68;2.45;;;;;;;26.08;66.65;98702.66;4499090;31;20104;-67
2023/07/06 11:26:40;;;;;;;4.43;2.30;;;;;;;26.20;64.45;98689.97;4495863;31;20676;-67
2023/07/06 11:29:10;;;;;;;5.62;2.75;;;;;;;26.28;62.66;98691.47;4494688;31;20100;-67
2023/07/06 11:32:10;;;;;;;4.70;2.22;;;;;;;26.27;58.33;98691.69;4494113;31;20351;-67
2023/07/06 11:34:47;;;;;;;4.43;2.50;;;;;;;26.24;60.12;98697.56;4495550;31;20155;-68
2023/07/06 11:37:40;;;;;;;4.45;2.10;;;;;;;26.44;57.31;98691.75;4497087;31;20505;-67
2023/07/06 11:40:55;;;;;;;6.62;2.37;;;;;;;26.60;53.55;98688.22;4498035;31;20118;-67
2023/07/06 11:43:54;;;;;;;4.05;2.00;;;;;;;26.80;54.49;98695.84;4496075;31;20092;-67
2023/07/06 11:46:43;;;;;;;4.00;2.10;;;;;;;26.82;52.65;98695.59;4496853;31;20571;-67
2023/07/06 11:49:22;;;;;;;4.78;2.17;;;;;;;27.02;53.97;98695.09;4497577;31;20176;-67